KTMT Airport (Austin) Information

FAA: TMT - ICAO: KTMT

KTMT Airport Location

State Nevada
County Lander
City Austin
KTMT Airport is 4 miles southwest of Austin, NV.
Latitude 39-28-04.5960N
Longitude 117-11-50.8340W
Elevation 5,735ft

KTMT Airport METARs

METAR KTMT 060730Z AUTO 18003KT 10SM CLR M08/M14 A3033 RMK AO2 T10821140
Altimeter 30.33"
Temperature -8.2°C (17.2°F)
Wind 180° at 3KT
Clouds Skies are clear.
Visibility 10.0mi
Time observed: 2021-12-06T07:30:00Z

KTMT Airport Details

Status Operational
Activation February 1943
Ownership Public
Usage Public
Chart LAS VEGAS
ATC on-site No
Beacon schedule sunset-sunrise
Beacon color clear green

KTMT Airport Contacts

Owner LANDER COUNTY
Owner address 50 STATE ROUTE 305, BATTLE MOUNTAIN, NV 89820-6400
Owner phone (775) 635-2885
Manager KENNETH VOLZKE
Manager address VOLZKE CORPORATION, UTICA, NE 68456
Manager phone 402-534-3131

KTMT Airport (Austin) Radio Frequencies

KTMT (Airport) Radio Frequencies

UNICOM N/A
Common traffic advisory frequency (CTAF) 122.9